메인 페이지
METAR-TAF:

METAR-TAF

공항 :

West Memphis, 아칸소, 미국

위도: 35-08N, 경도: 090-14W, 고도: 65m

현재 날씨관측

예보는 49분 전, 14:53시(UTC)에 발표되었습니다.
여러 방향의 바람 4kt
온도 29°C
습도 66%
기압 1018 hPa
시정: 14.5km
맑음

METAR: KAWM 201453Z AUTO VRB04KT 9SM CLR 29/22 A3007 RMK AO2 SLP177 T02890222 52013

시각: 10:42 (15:42 UTC)


TAF: 누락

4,000개 이상의 공항 관측 자료 및 예보 (METAR 및 TAF 보고).

지도상에서 검색 가능한 기상관측소가 노란 점과 빨간 점으로 표시되어 있습니다.

기상관측소 명을 보려면 표시 위로 마우스를 이동하세요.

날씨 관측과 예보를 보려면 클릭하세요.

지도 변경 : 확대하려면 엑스 표시가 있는 녹색 버튼, 축소하려면 빼기 표시가 있는 녹색 버튼, 다음 페이지의 지도를 보려면 녹색 화살표를 클릭하세요.


METAR-TAF: